createdAt,value
2022-11-16T00:02:12.224Z,99760.53
2022-11-16T00:04:39.575Z,99763.19
2022-11-16T00:07:06.775Z,99741.22
2022-11-16T00:09:34.038Z,99750.00
2022-11-16T00:12:08.746Z,99754.38
2022-11-16T00:14:36.392Z,99763.19
2022-11-16T00:17:04.612Z,99760.53
2022-11-16T00:19:32.019Z,99757.03
2022-11-16T00:21:59.568Z,99758.78
2022-11-16T00:24:26.591Z,99768.44
2022-11-16T00:26:55.517Z,99761.41
2022-11-16T00:29:25.369Z,99765.78
2022-11-16T00:31:53.772Z,99759.66
2022-11-16T00:34:22.064Z,99758.75
2022-11-16T00:36:49.394Z,99762.28
2022-11-16T00:39:18.131Z,99765.75
2022-11-16T00:41:45.527Z,99761.38
2022-11-16T00:44:12.896Z,99752.59
2022-11-16T00:46:40.403Z,99757.84
2022-11-16T00:49:08.195Z,99755.19
2022-11-16T00:51:36.882Z,99756.09
2022-11-16T00:54:06.647Z,99761.38
2022-11-16T00:56:33.873Z,99756.09
2022-11-16T00:59:00.989Z,99768.41
2022-11-16T01:01:28.014Z,99759.66
2022-11-16T01:03:55.209Z,99757.84
2022-11-16T01:06:23.468Z,99761.38
2022-11-16T01:08:51.011Z,99749.97
2022-11-16T01:11:37.191Z,99757.88
2022-11-16T01:14:08.250Z,99745.59
2022-11-16T01:16:35.569Z,99746.47
2022-11-16T01:19:03.927Z,99744.72
2022-11-16T01:21:30.990Z,99742.09
2022-11-16T01:23:57.943Z,99748.22
2022-11-16T01:26:25.216Z,99748.25
2022-11-16T01:28:53.033Z,99747.38
2022-11-16T01:31:20.023Z,99752.66
2022-11-16T01:33:47.147Z,99757.03
2022-11-16T01:36:15.219Z,99762.31
2022-11-16T01:38:45.556Z,99767.56
2022-11-16T01:41:20.981Z,99766.69
2022-11-16T01:44:03.449Z,99771.09
2022-11-16T01:46:31.421Z,99764.03
2022-11-16T01:49:24.415Z,99771.94
2022-11-16T01:52:01.770Z,99772.84
2022-11-16T01:54:31.139Z,99772.84
2022-11-16T01:57:03.130Z,99775.50
2022-11-16T01:59:31.084Z,99762.31
2022-11-16T02:02:00.998Z,99764.97
2022-11-16T02:04:28.005Z,99759.72
2022-11-16T02:07:26.556Z,99760.59
2022-11-16T02:10:02.374Z,99766.78
2022-11-16T02:12:55.538Z,99758.88
2022-11-16T02:15:35.669Z,99751.00
2022-11-16T02:18:32.156Z,99758.03
2022-11-16T02:21:20.656Z,99746.66
2022-11-16T02:24:02.284Z,99757.19
2022-11-16T02:26:55.014Z,99753.69
2022-11-16T02:29:51.849Z,99757.22
2022-11-16T02:32:58.224Z,99751.94
2022-11-16T02:35:29.855Z,99747.56
2022-11-16T02:38:07.148Z,99755.47
2022-11-16T02:40:39.967Z,99769.56
2022-11-16T02:43:09.554Z,99765.16
2022-11-16T02:45:45.733Z,99762.53
2022-11-16T02:48:30.273Z,99760.81
2022-11-16T02:50:57.660Z,99767.84
2022-11-16T02:53:26.116Z,99768.75
2022-11-16T02:55:53.129Z,99764.34
2022-11-16T02:58:25.892Z,99769.63
2022-11-16T03:01:13.118Z,99774.94
2022-11-16T03:04:29.548Z,99763.53
2022-11-16T03:06:58.457Z,99772.34
2022-11-16T03:09:31.349Z,99773.22
2022-11-16T03:12:03.012Z,99777.59
2022-11-16T03:15:02.848Z,99779.38
2022-11-16T03:17:41.564Z,99782.03
2022-11-16T03:20:31.391Z,99782.91
2022-11-16T03:23:06.366Z,99777.66
2022-11-16T03:25:47.810Z,99775.91
2022-11-16T03:28:45.962Z,99772.41
2022-11-16T03:31:30.490Z,99769.81
2022-11-16T03:34:03.921Z,99768.94
2022-11-16T03:36:36.091Z,99775.09
2022-11-16T03:39:12.880Z,99768.09
2022-11-16T03:41:44.257Z,99767.22
2022-11-16T03:44:14.433Z,99767.22
2022-11-16T03:46:44.068Z,99783.91
2022-11-16T03:49:11.046Z,99777.75
2022-11-16T03:51:38.796Z,99776.91
2022-11-16T03:54:06.159Z,99791.81
2022-11-16T03:56:33.147Z,99793.59
2022-11-16T03:59:00.636Z,99801.50
2022-11-16T04:01:27.655Z,99799.75
2022-11-16T04:03:54.742Z,99792.75
2022-11-16T04:06:40.311Z,99793.63
2022-11-16T04:09:49.533Z,99786.63
2022-11-16T04:12:35.250Z,99791.03
2022-11-16T04:15:20.573Z,99792.81
2022-11-16T04:18:06.133Z,99799.81
2022-11-16T04:20:51.861Z,99799.81
2022-11-16T04:23:37.358Z,99803.34
2022-11-16T04:26:08.381Z,99799.00
2022-11-16T04:28:36.487Z,99808.63
2022-11-16T04:31:47.834Z,99803.38
2022-11-16T04:34:33.587Z,99802.47
2022-11-16T04:37:19.069Z,99806.88
2022-11-16T04:39:46.028Z,99802.50
2022-11-16T04:42:19.984Z,99800.75
2022-11-16T04:45:05.890Z,99795.50
2022-11-16T04:47:33.012Z,99799.91
2022-11-16T04:49:59.991Z,99801.66
2022-11-16T04:52:26.944Z,99799.91
2022-11-16T04:54:53.893Z,99799.03
2022-11-16T04:57:20.839Z,99803.44
2022-11-16T04:59:47.773Z,99808.69
2022-11-16T05:02:15.286Z,99806.06
2022-11-16T05:04:44.454Z,99801.69
2022-11-16T05:07:15.254Z,99807.84
2022-11-16T05:09:45.612Z,99806.91
2022-11-16T05:12:23.872Z,99800.78
2022-11-16T05:14:51.393Z,99790.25
2022-11-16T05:17:19.277Z,99791.16
2022-11-16T05:20:05.101Z,99797.28
2022-11-16T05:22:32.554Z,99804.31
2022-11-16T05:24:59.827Z,99797.31
2022-11-16T05:27:29.013Z,99797.31
2022-11-16T05:29:56.737Z,99802.56
2022-11-16T05:32:25.393Z,99798.19
2022-11-16T05:34:52.645Z,99799.06
2022-11-16T05:37:21.183Z,99802.56
2022-11-16T05:39:48.653Z,99801.69
2022-11-16T05:42:16.454Z,99806.06
2022-11-16T05:44:43.594Z,99811.31
2022-11-16T05:47:10.814Z,99804.31
2022-11-16T05:49:37.811Z,99806.06
2022-11-16T05:52:04.761Z,99807.81
2022-11-16T05:54:31.733Z,99819.19
2022-11-16T05:56:58.733Z,99816.53
2022-11-16T05:59:26.091Z,99815.66
2022-11-16T06:01:53.116Z,99814.78
2022-11-16T06:04:24.842Z,99826.16
2022-11-16T06:06:52.324Z,99831.41
2022-11-16T06:09:19.711Z,99829.66
2022-11-16T06:11:46.681Z,99836.63
2022-11-16T06:14:13.734Z,99833.13
2022-11-16T06:16:40.723Z,99834.03
2022-11-16T06:19:07.762Z,99845.41
2022-11-16T06:21:34.940Z,99841.94
2022-11-16T06:24:02.762Z,99835.78
2022-11-16T06:26:29.704Z,99840.16
2022-11-16T06:28:56.716Z,99841.88
2022-11-16T06:31:23.668Z,99838.38
2022-11-16T06:33:50.671Z,99845.38
2022-11-16T06:36:17.682Z,99844.50
2022-11-16T06:38:44.631Z,99836.63
2022-11-16T06:41:11.722Z,99839.22
2022-11-16T06:43:38.737Z,99843.59
2022-11-16T06:46:05.788Z,99850.69
2022-11-16T06:48:33.976Z,99853.38
2022-11-16T06:51:04.456Z,99841.94
2022-11-16T06:53:31.477Z,99826.22
2022-11-16T06:56:06.224Z,99813.22
2022-11-16T06:58:34.673Z,99812.66
2022-11-16T07:01:10.199Z,99806.91
2022-11-16T07:03:37.541Z,99814.50
2022-11-16T07:06:13.411Z,99814.22
2022-11-16T07:08:40.537Z,99818.41
2022-11-16T07:11:09.331Z,99821.81
2022-11-16T07:13:38.288Z,99817.28
2022-11-16T07:16:11.083Z,99814.56
2022-11-16T07:18:40.622Z,99824.19
2022-11-16T07:21:13.811Z,99827.63
2022-11-16T07:23:41.166Z,99822.28
2022-11-16T07:26:09.953Z,99823.16
2022-11-16T07:28:37.471Z,99821.28
2022-11-16T07:31:08.797Z,99823.00
2022-11-16T07:33:36.777Z,99829.06
2022-11-16T07:36:10.800Z,99829.03
2022-11-16T07:38:38.741Z,99829.88
2022-11-16T07:41:12.569Z,99833.34
2022-11-16T07:43:40.402Z,99833.31
2022-11-16T07:46:45.435Z,99835.03
2022-11-16T07:49:00.105Z,99837.59
2022-11-16T07:51:27.064Z,99843.75
2022-11-16T07:53:58.534Z,99834.91
2022-11-16T07:56:25.520Z,99837.53
2022-11-16T07:58:52.565Z,99832.22
2022-11-16T08:01:19.948Z,99833.97
2022-11-16T08:03:47.337Z,99840.16
2022-11-16T08:06:17.765Z,99835.69
2022-11-16T08:08:45.163Z,99831.25
2022-11-16T08:11:13.353Z,99830.38
2022-11-16T08:13:42.186Z,99826.81
2022-11-16T08:16:16.968Z,99831.22
2022-11-16T08:18:44.863Z,99828.56
2022-11-16T08:21:14.969Z,99827.59
2022-11-16T08:23:42.815Z,99825.81
2022-11-16T08:26:14.618Z,99829.31
2022-11-16T08:28:44.615Z,99831.09
2022-11-16T08:31:21.074Z,99832.84
2022-11-16T08:33:48.270Z,99839.91
2022-11-16T08:36:18.118Z,99833.69
2022-11-16T08:38:47.097Z,99839.00
2022-11-16T08:41:15.081Z,99838.09
2022-11-16T08:43:44.615Z,99834.56
2022-11-16T08:46:12.072Z,99845.16
2022-11-16T08:48:39.911Z,99851.31
2022-11-16T08:51:18.194Z,99842.53
2022-11-16T08:53:48.173Z,99846.06
2022-11-16T08:56:17.681Z,99848.72
2022-11-16T08:58:47.064Z,99846.06
2022-11-16T09:01:18.982Z,99842.50
2022-11-16T09:03:46.746Z,99841.66
2022-11-16T09:06:15.057Z,99833.69
2022-11-16T09:08:44.669Z,99836.31
2022-11-16T09:11:16.573Z,99831.84
2022-11-16T09:13:45.647Z,99831.88
2022-11-16T09:16:16.616Z,99826.59
2022-11-16T09:18:47.129Z,99831.88
2022-11-16T09:21:28.752Z,99832.78
2022-11-16T09:23:57.225Z,99822.19
2022-11-16T09:26:25.431Z,99828.31
2022-11-16T09:29:00.868Z,99838.03
2022-11-16T09:31:29.586Z,99834.47
2022-11-16T09:33:59.016Z,99826.47
2022-11-16T09:36:28.644Z,99818.47
2022-11-16T09:39:25.874Z,99824.69
2022-11-16T09:42:26.930Z,99834.44
2022-11-16T09:45:12.717Z,99814.94
2022-11-16T09:47:59.455Z,99814.94
2022-11-16T09:50:41.403Z,99835.22
2022-11-16T09:53:31.695Z,99824.56
2022-11-16T09:56:25.385Z,99825.44
2022-11-16T09:59:25.953Z,99821.91
2022-11-16T10:02:14.466Z,99838.63
2022-11-16T10:04:58.303Z,99837.75
2022-11-16T10:07:46.069Z,99844.00
2022-11-16T10:10:14.899Z,99842.16
2022-11-16T10:12:57.851Z,99841.28
2022-11-16T10:15:49.854Z,99857.16
2022-11-16T10:18:39.718Z,99853.63
2022-11-16T10:21:30.979Z,99851.81
2022-11-16T10:24:46.529Z,99847.41
2022-11-16T10:27:51.929Z,99851.84
2022-11-16T10:30:21.838Z,99850.94
2022-11-16T10:33:21.328Z,99847.41
2022-11-16T10:35:54.602Z,99849.16
2022-11-16T10:38:31.003Z,99835.84
2022-11-16T10:41:13.333Z,99839.38
2022-11-16T10:43:42.158Z,99849.13
2022-11-16T10:46:42.245Z,99837.63
2022-11-16T10:49:22.517Z,99832.34
2022-11-16T10:51:49.497Z,99834.94
2022-11-16T10:54:18.373Z,99837.59
2022-11-16T10:56:51.940Z,99841.03
2022-11-16T10:59:19.626Z,99842.00
2022-11-16T11:01:50.063Z,99840.25
2022-11-16T11:04:32.590Z,99838.50
2022-11-16T11:07:29.987Z,99832.31
2022-11-16T11:09:57.038Z,99835.84
2022-11-16T11:12:38.423Z,99831.38
2022-11-16T11:15:11.434Z,99830.56
2022-11-16T11:17:49.872Z,99831.47
2022-11-16T11:20:17.006Z,99830.53
2022-11-16T11:22:58.890Z,99819.06
2022-11-16T11:25:38.804Z,99810.16
2022-11-16T11:28:31.736Z,99811.06
2022-11-16T11:31:32.947Z,99803.09
2022-11-16T11:34:10.159Z,99810.16
2022-11-16T11:36:46.154Z,99799.41
2022-11-16T11:39:13.132Z,99793.28
2022-11-16T11:41:59.754Z,99796.84
2022-11-16T11:44:58.720Z,99795.97
2022-11-16T11:48:00.038Z,99782.63
2022-11-16T11:50:59.648Z,99788.75
2022-11-16T11:53:44.263Z,99777.31
2022-11-16T11:56:14.217Z,99768.47
2022-11-16T11:58:42.757Z,99775.53
2022-11-16T12:01:31.326Z,99771.91
2022-11-16T12:04:42.889Z,99773.66
2022-11-16T12:07:27.594Z,99772.84
2022-11-16T12:10:18.238Z,99775.44
2022-11-16T12:13:39.083Z,99756.91
2022-11-16T12:16:37.931Z,99763.97
2022-11-16T12:19:36.783Z,99760.44
2022-11-16T12:22:36.669Z,99760.44
2022-11-16T12:25:25.049Z,99755.16
2022-11-16T12:28:09.502Z,99748.03
2022-11-16T12:31:31.806Z,99742.72
2022-11-16T12:34:07.486Z,99740.91
2022-11-16T12:37:03.787Z,99750.66
2022-11-16T12:40:00.756Z,99733.84
2022-11-16T12:43:24.782Z,99738.25
2022-11-16T12:46:22.933Z,99731.19
2022-11-16T12:49:35.002Z,99726.81
2022-11-16T12:52:23.556Z,99731.16
2022-11-16T12:55:29.825Z,99725.84
2022-11-16T12:58:20.732Z,99730.28
2022-11-16T13:01:17.327Z,99725.84
2022-11-16T13:04:10.096Z,99723.19
2022-11-16T13:06:52.459Z,99716.97
2022-11-16T13:09:26.341Z,99720.53
2022-11-16T13:12:01.744Z,99718.75
2022-11-16T13:14:39.745Z,99718.75
2022-11-16T13:17:07.597Z,99709.00
2022-11-16T13:19:41.975Z,99716.91
2022-11-16T13:22:19.750Z,99715.13
2022-11-16T13:25:04.886Z,99711.56
2022-11-16T13:27:43.921Z,99710.69
2022-11-16T13:30:22.745Z,99709.78
2022-11-16T13:33:40.133Z,99705.34
2022-11-16T13:36:43.800Z,99700.03
2022-11-16T13:39:22.363Z,99701.78
2022-11-16T13:42:06.532Z,99710.63
2022-11-16T13:44:35.115Z,99705.25
2022-11-16T13:47:19.476Z,99696.38
2022-11-16T13:49:54.402Z,99700.81
2022-11-16T13:52:24.081Z,99699.91
2022-11-16T13:54:57.232Z,99699.91
2022-11-16T13:57:27.234Z,99699.03
2022-11-16T14:00:04.901Z,99686.63
2022-11-16T14:02:42.505Z,99682.19
2022-11-16T14:05:33.996Z,99686.59
2022-11-16T14:08:26.934Z,99678.63
2022-11-16T14:10:53.753Z,99683.94
2022-11-16T14:13:45.726Z,99678.63
2022-11-16T14:16:19.390Z,99680.38
2022-11-16T14:18:50.182Z,99669.75
2022-11-16T14:21:19.959Z,99667.09
2022-11-16T14:24:30.256Z,99665.25
2022-11-16T14:27:16.979Z,99667.91
2022-11-16T14:30:16.004Z,99663.41
2022-11-16T14:32:52.701Z,99653.75
2022-11-16T14:35:39.354Z,99649.38
2022-11-16T14:38:24.528Z,99642.28
2022-11-16T14:40:59.163Z,99634.34
2022-11-16T14:43:55.262Z,99625.47
2022-11-16T14:46:29.789Z,99629.91
2022-11-16T14:48:59.304Z,99624.56
2022-11-16T14:51:41.263Z,99621.09
2022-11-16T14:54:23.440Z,99627.22
2022-11-16T14:56:58.910Z,99624.56
2022-11-16T14:59:27.211Z,99616.59
2022-11-16T15:01:54.558Z,99617.41
2022-11-16T15:04:24.149Z,99619.22
2022-11-16T15:07:01.457Z,99621.00
2022-11-16T15:09:41.748Z,99628.00
2022-11-16T15:12:40.619Z,99620.94
2022-11-16T15:15:10.536Z,99619.13
2022-11-16T15:17:52.108Z,99617.38
2022-11-16T15:20:23.610Z,99618.25
2022-11-16T15:22:57.413Z,99613.84
2022-11-16T15:25:35.724Z,99597.06
2022-11-16T15:28:30.674Z,99598.78
2022-11-16T15:31:04.579Z,99589.91
2022-11-16T15:33:40.669Z,99582.81
2022-11-16T15:36:32.922Z,99580.16
2022-11-16T15:39:02.418Z,99566.00
2022-11-16T15:41:29.713Z,99569.53
2022-11-16T15:44:16.924Z,99554.53
2022-11-16T15:46:51.532Z,99546.50
2022-11-16T15:49:40.126Z,99542.94
2022-11-16T15:52:07.228Z,99538.50
2022-11-16T15:54:55.994Z,99530.53
2022-11-16T15:57:25.004Z,99523.50
2022-11-16T15:59:57.309Z,99533.19
2022-11-16T16:02:28.398Z,99530.78
2022-11-16T16:04:55.545Z,99532.34
2022-11-16T16:07:44.019Z,99541.38
2022-11-16T16:10:20.575Z,99544.97
2022-11-16T16:12:52.094Z,99547.69
2022-11-16T16:15:37.783Z,99546.00
2022-11-16T16:18:36.708Z,99547.78
2022-11-16T16:21:03.827Z,99540.84
2022-11-16T16:23:30.866Z,99533.84
2022-11-16T16:26:02.884Z,99542.66
2022-11-16T16:28:29.861Z,99528.69
2022-11-16T16:30:56.750Z,99534.81
2022-11-16T16:33:28.578Z,99531.28
2022-11-16T16:35:55.652Z,99522.56
2022-11-16T16:38:22.685Z,99518.22
2022-11-16T16:40:49.618Z,99520.00
2022-11-16T16:43:16.618Z,99522.63
2022-11-16T16:45:45.474Z,99530.53
2022-11-16T16:48:12.800Z,99522.66
2022-11-16T16:50:40.322Z,99513.91
2022-11-16T16:53:10.362Z,99502.50
2022-11-16T16:55:37.880Z,99502.50
2022-11-16T16:58:05.862Z,99494.63
2022-11-16T17:00:32.894Z,99513.94
2022-11-16T17:02:59.865Z,99507.88
2022-11-16T17:05:27.061Z,99497.38
2022-11-16T17:07:57.172Z,99507.91
2022-11-16T17:10:24.348Z,99501.81
2022-11-16T17:12:57.813Z,99506.16
2022-11-16T17:15:25.213Z,99507.91
2022-11-16T17:17:52.302Z,99507.91
2022-11-16T17:20:19.448Z,99511.44
2022-11-16T17:22:46.775Z,99506.19
2022-11-16T17:25:14.928Z,99500.91
2022-11-16T17:27:41.900Z,99503.56
2022-11-16T17:30:09.953Z,99501.84
2022-11-16T17:32:36.957Z,99498.34
2022-11-16T17:35:04.076Z,99502.72
2022-11-16T17:37:30.998Z,99494.84
2022-11-16T17:39:58.249Z,99501.88
2022-11-16T17:42:25.375Z,99509.78
2022-11-16T17:44:53.948Z,99507.13
2022-11-16T17:47:20.968Z,99502.75
2022-11-16T17:49:47.942Z,99502.75
2022-11-16T17:52:14.866Z,99508.00
2022-11-16T17:54:41.957Z,99510.59
2022-11-16T17:57:08.959Z,99505.31
2022-11-16T17:59:36.016Z,99497.41
2022-11-16T18:02:02.971Z,99493.91
2022-11-16T18:04:29.899Z,99480.75
2022-11-16T18:06:56.961Z,99483.34
2022-11-16T18:09:24.201Z,99484.22
2022-11-16T18:11:51.137Z,99480.69
2022-11-16T18:14:18.108Z,99480.72
2022-11-16T18:16:47.839Z,99474.56
2022-11-16T18:19:18.447Z,99474.53
2022-11-16T18:21:46.375Z,99466.66
2022-11-16T18:24:13.815Z,99473.69
2022-11-16T18:26:41.119Z,99464.97
2022-11-16T18:29:12.739Z,99461.47
2022-11-16T18:31:40.695Z,99468.47
2022-11-16T18:34:07.686Z,99464.94
2022-11-16T18:36:34.672Z,99453.56
2022-11-16T18:39:01.741Z,99459.72
2022-11-16T18:41:29.855Z,99458.84
2022-11-16T18:44:01.890Z,99443.09
2022-11-16T18:46:32.950Z,99444.84
2022-11-16T18:49:00.532Z,99449.22
2022-11-16T18:51:28.971Z,99441.31
2022-11-16T18:53:56.790Z,99434.31
2022-11-16T18:56:24.996Z,99427.31
2022-11-16T18:58:53.200Z,99415.06
2022-11-16T19:01:26.076Z,99412.47
2022-11-16T19:03:54.922Z,99404.72
2022-11-16T19:06:23.713Z,57764.94
2022-11-16T19:09:03.910Z,57764.94
2022-11-16T19:11:31.224Z,99382.94
2022-11-16T19:14:04.778Z,99377.69
2022-11-16T19:16:32.219Z,99368.03
2022-11-16T19:18:59.886Z,99359.28
2022-11-16T19:21:27.613Z,99349.63
2022-11-16T19:23:56.196Z,99345.28
2022-11-16T19:26:26.068Z,99333.88
2022-11-16T19:28:54.574Z,99325.13
2022-11-16T19:31:27.177Z,99323.34
2022-11-16T19:33:55.287Z,99304.97
2022-11-16T19:36:23.968Z,99311.94
2022-11-16T19:38:51.823Z,99304.03
2022-11-16T19:41:23.578Z,99290.91
2022-11-16T19:43:56.987Z,99290.88
2022-11-16T19:46:24.857Z,99282.94
2022-11-16T19:48:52.657Z,99265.44
2022-11-16T19:51:32.041Z,99271.53
2022-11-16T19:54:00.804Z,99262.78
2022-11-16T19:56:28.613Z,99261.88
2022-11-16T19:58:55.961Z,99270.63
2022-11-16T20:01:29.385Z,57764.94
2022-11-16T20:03:59.939Z,57764.94
2022-11-16T20:06:32.679Z,57764.94
2022-11-16T20:09:08.392Z,57764.94
2022-11-16T20:11:38.223Z,57764.94
2022-11-16T20:14:08.502Z,57764.94
2022-11-16T20:16:39.236Z,57764.94
2022-11-16T20:19:08.369Z,57764.94
2022-11-16T20:21:40.958Z,57764.94
2022-11-16T20:24:14.958Z,57764.94
2022-11-16T20:26:45.076Z,57764.94
2022-11-16T20:29:17.178Z,57764.94
2022-11-16T20:31:46.042Z,57764.94
2022-11-16T20:34:15.776Z,57764.94
2022-11-16T20:36:45.302Z,57764.94
2022-11-16T20:39:14.525Z,57764.94
2022-11-16T20:41:42.928Z,57764.94
2022-11-16T20:44:19.111Z,57764.94
2022-11-16T20:46:46.745Z,57764.94
2022-11-16T20:49:14.654Z,57764.94
2022-11-16T20:51:42.162Z,57764.94
2022-11-16T20:54:09.569Z,57764.94
2022-11-16T20:56:36.906Z,57764.94
2022-11-16T20:59:05.203Z,57764.94
2022-11-16T21:01:32.754Z,57764.94
2022-11-16T21:04:05.644Z,57764.94
2022-11-16T21:06:33.466Z,57764.94
2022-11-16T21:09:01.226Z,57764.94
2022-11-16T21:11:31.005Z,57764.94
2022-11-16T21:14:16.294Z,57764.94
2022-11-16T21:16:44.437Z,57764.94
2022-11-16T21:19:12.607Z,57764.94
2022-11-16T21:21:40.859Z,57764.94
2022-11-16T21:24:11.340Z,57764.94
2022-11-16T21:26:38.895Z,57764.94
2022-11-16T21:29:06.721Z,57764.94
2022-11-16T21:31:36.141Z,57764.94
2022-11-16T21:34:03.729Z,57764.94
2022-11-16T21:36:33.010Z,57764.94
2022-11-16T21:39:00.522Z,57764.94
2022-11-16T21:41:28.364Z,57764.94
2022-11-16T21:43:56.133Z,57764.94
2022-11-16T21:46:25.711Z,57764.94
2022-11-16T21:48:55.436Z,57764.94
2022-11-16T21:51:25.210Z,57764.94
2022-11-16T21:53:52.757Z,57764.94
2022-11-16T21:56:22.317Z,57764.94
2022-11-16T21:58:50.485Z,57764.94
2022-11-16T22:01:17.921Z,57764.94
2022-11-16T22:03:45.720Z,57764.94
2022-11-16T22:06:35.461Z,57764.94
2022-11-16T22:09:02.881Z,57764.94
2022-11-16T22:11:30.208Z,57764.94
2022-11-16T22:13:57.480Z,57764.94
2022-11-16T22:16:24.823Z,57764.94
2022-11-16T22:18:52.085Z,57764.94
2022-11-16T22:21:19.445Z,57764.94
2022-11-16T22:23:46.756Z,57764.94
2022-11-16T22:26:14.748Z,57764.94
2022-11-16T22:28:42.181Z,57764.94
2022-11-16T22:31:15.870Z,57764.94
2022-11-16T22:33:43.254Z,57764.94
2022-11-16T22:36:11.737Z,57764.94
2022-11-16T22:38:39.125Z,57764.94
2022-11-16T22:41:06.555Z,57764.94
2022-11-16T22:43:34.379Z,57764.94
2022-11-16T22:46:04.356Z,57764.94
2022-11-16T22:48:34.030Z,57764.94
2022-11-16T22:51:28.840Z,57764.94
2022-11-16T22:54:01.286Z,57764.94
2022-11-16T22:56:30.914Z,57764.94
2022-11-16T22:58:58.905Z,57764.94
2022-11-16T23:01:26.288Z,57764.94
2022-11-16T23:03:53.661Z,57764.94
2022-11-16T23:06:21.127Z,57764.94
2022-11-16T23:08:48.708Z,57764.94
2022-11-16T23:11:40.171Z,57764.94
2022-11-16T23:14:29.196Z,57764.94
2022-11-16T23:16:56.681Z,57764.94
2022-11-16T23:19:42.951Z,57764.94
2022-11-16T23:22:34.591Z,57764.94
2022-11-16T23:25:20.799Z,57764.94
2022-11-16T23:28:00.194Z,57764.94
2022-11-16T23:30:27.643Z,57764.94
2022-11-16T23:32:55.256Z,57764.94
2022-11-16T23:35:22.871Z,57764.94
2022-11-16T23:37:51.695Z,57764.94
2022-11-16T23:40:19.453Z,57764.94
2022-11-16T23:43:05.611Z,57764.94
2022-11-16T23:45:32.987Z,57764.94
2022-11-16T23:48:00.692Z,57764.94
2022-11-16T23:50:28.121Z,57764.94
2022-11-16T23:52:55.408Z,57764.94
2022-11-16T23:55:23.221Z,57764.94
2022-11-16T23:57:51.321Z,57764.94
